Gilbertsville, KY (42044)

9:25 PM CDT on October 01, 2014 (GMT -0500)
Moors Highway | Change Station
CLOSE
Current Station
Personal Weather Station
Location: Gilbertsville, KY
Elevation: 472 ft
Nearby Weather Stations

Elev 472 ft 36.93 °N, 88.22 °W | Updated 2 seconds ago

Clear
Clear
74.4 °F
Feels Like 76 °F
N
0.0
Wind Variable Wind from SSW
Gusts 2.0 mph

Today
High -- | Low -- °F
--% Chance of Precip.
Yesterday
High -- | Low -- °F
Precip. -- in
6:48 AM 6:36 PM
First Quarter, 53% visible
Pressure 29.93 in
Visibility 10.0 miles
Clouds Clear
Heat Index 76 °F
Dew Point 63 °F
Humidity 68%
Rainfall 0.00 in
Snow Depth Not available.
UV 0 out of 12
Pollen 5.50 out of 12
Air Quality Not available.
Flu Activity Not available.
METAR KCEY 020215Z AUTO 16004KT 10SM CLR 22/15 A2993 RMK AO1

More Conditions Fewer Conditions

Pressure 29.93 in
Visibility 10.0 miles
Clouds Clear
Heat Index 76 °F
Dew Point 63 °F
Humidity 68%
Rainfall 0.00 in
Snow Depth Not available.
UV 0 out of 12
Pollen 5.50 out of 12
Air Quality Not available.
Flu Activity Not available.
METAR KCEY 020215Z AUTO 16004KT 10SM CLR 22/15 A2993 RMK AO1

More Conditions Fewer Conditions

10-Day Weather Forecast

Almanac

Astronomy

Oct. 01, 2014 Rise Set
Actual Time 6:48 AM CDT 6:36 PM CDT
Civil Twilight 6:22 AM CDT 7:02 PM CDT
Nautical Twilight 5:52 AM CDT 7:32 PM CDT
Astronomical Twilight 5:21 AM CDT 8:02 PM CDT
Moon 1:42 PM CDT (10/1) No Moon Set
Length of Visible Light 12h 39m
Length of Day
11h 47m
Tomorrow will be 2m 20s shorter.
First Quarter, 53% of the Moon is Illuminated
Today
First Quarter
Oct 8
Full
Oct 15
Last Quarter
Oct 23
New
Oct 30
First Quarter

Today's Extremes

State Highs State Lows

Community

WunderPhotos

Upload Photos

1,758,142 photos uploaded!

WunderBlogs® & News

Nearby

Snow Depth

Station Depth Elevation
No new snow has been reported.

Earthquake Activity

City Distance Mag. Time & Date
No recent earthquake activity has been reported nearby.
Minimum magnitude displayed is 2.5.

Coastal Water Temperatures

Place Temperature
No Stations Reporting

Nearby Weather Stations